Time;durP1;ratioP1;P1;durP2;ratioP2;P2;SDS_P1;SDS_P2;PMS_P1;PMS_P2;Temp;Humidity;BMP_temperature;BMP_pressure;BME280_temperature;BME280_humidity;BME280_pressure;Samples;Min_cycle;Max_cycle;Signal;HPM_P1;HPM_P2
2023/04/29 00:01:42;;;;;;;;;;;;;;;13.49;63.64;99826.13;4470220;32;35235;-80
2023/04/29 00:04:10;;;;;;;;;;;;;;;13.89;64.44;99823.09;4469813;32;34076;-81
2023/04/29 00:06:37;;;;;;;;;;;;;;;14.27;62.31;99823.38;4465601;32;35102;-80
2023/04/29 00:09:05;;;;;;;;;;;;;;;13.45;65.56;99825.13;4469860;32;34208;-81
2023/04/29 00:11:34;;;;;;;;;;;;;;;13.92;64.08;99815.38;4469778;32;34145;-81
2023/04/29 00:14:02;;;;;;;;;;;;;;;14.07;63.45;99814.97;4468974;32;33603;-81
2023/04/29 00:16:29;;;;;;;;;;;;;;;14.23;62.14;99811.09;4469844;32;34114;-80
2023/04/29 00:18:56;;;;;;;;;;;;;;;14.34;61.97;99811.44;4469345;32;32968;-81
2023/04/29 00:21:26;;;;;;;;;;;;;;;14.01;63.77;99808.69;4469941;32;35230;-80
2023/04/29 00:23:53;;;;;;;;;;;;;;;14.42;62.57;99809.06;4459270;32;33599;-81
2023/04/29 00:26:20;;;;;;;;;;;;;;;14.56;62.50;99807.72;4469319;32;34441;-81
2023/04/29 00:28:48;;;;;;;;;;;;;;;14.26;62.47;99805.13;4460479;32;34375;-81
2023/04/29 00:31:15;;;;;;;;;;;;;;;14.09;63.54;99809.81;4469504;32;34419;-81
2023/04/29 00:33:42;;;;;;;;;;;;;;;13.90;65.66;99809.22;4469713;32;33596;-80
2023/04/29 00:36:10;;;;;;;;;;;;;;;13.82;65.19;99809.84;4469767;32;33901;-80
2023/04/29 00:38:37;;;;;;;;;;;;;;;13.75;64.22;99813.94;4469567;32;34081;-80
2023/04/29 00:41:04;;;;;;;;;;;;;;;13.77;63.82;99822.69;4469755;32;35110;-81
2023/04/29 00:43:31;;;;;;;;;;;;;;;13.70;63.76;99821.62;4458215;32;34843;-80
2023/04/29 00:45:59;;;;;;;;;;;;;;;13.72;64.55;99821.69;4459319;32;33918;-80
2023/04/29 00:48:26;;;;;;;;;;;;;;;13.85;63.01;99830.75;4459269;32;34458;-80
2023/04/29 00:50:53;;;;;;;;;;;;;;;13.90;63.45;99819.66;4469681;32;32719;-81
2023/04/29 00:53:22;;;;;;;;;;;;;;;14.22;61.79;99827.59;4465509;32;32295;-80
2023/04/29 00:55:50;;;;;;;;;;;;;;;14.26;61.75;99824.22;4469224;32;33790;-81
2023/04/29 00:58:18;;;;;;;;;;;;;;;14.00;63.04;99815.59;4469381;32;34268;-80
2023/04/29 01:00:45;;;;;;;;;;;;;;;14.09;62.59;99828.03;4469266;32;35223;-81
2023/04/29 01:03:13;;;;;;;;;;;;;;;14.28;61.75;99819.94;4469608;32;33289;-81
2023/04/29 01:05:41;;;;;;;;;;;;;;;14.62;61.04;99812.25;4465913;32;33800;-81
2023/04/29 01:08:14;;;;;;;;;;;;;;;14.19;61.55;99817.06;4468069;32;33959;-80
2023/04/29 01:10:48;;;;;;;;;;;;;;;14.17;62.02;99821.34;4469389;32;34508;-80
2023/04/29 01:13:16;;;;;;;;;;;;;;;14.38;61.31;99817.63;4462386;32;33202;-80
2023/04/29 01:16:02;;;;;;;;;;;;;;;14.12;62.56;99820.34;4444728;32;786754;-81
2023/04/29 01:18:38;;;;;;;;;;;;;;;13.94;62.93;99816.28;4466684;32;35091;-81
2023/04/29 01:21:05;;;;;;;;;;;;;;;13.92;63.09;99809.28;4434435;32;33603;-81
2023/04/29 01:23:32;;;;;;;;;;;;;;;13.73;63.50;99813.00;4463765;32;33745;-81
2023/04/29 01:26:00;;;;;;;;;;;;;;;13.68;64.00;99807.69;4469384;32;34262;-80
2023/04/29 01:28:37;;;;;;;;;;;;;;;13.95;63.42;99809.38;4468869;32;34147;-81
2023/04/29 01:31:08;;;;;;;;;;;;;;;14.24;62.30;99810.28;4461222;32;34451;-81
2023/04/29 01:33:50;;;;;;;;;;;;;;;14.09;62.38;99809.81;4469455;32;33657;-80
2023/04/29 01:36:36;;;;;;;;;;;;;;;14.07;62.62;99801.06;4459053;32;34194;-81
2023/04/29 01:39:19;;;;;;;;;;;;;;;13.83;63.41;99801.16;4452378;32;35063;-80
2023/04/29 01:41:51;;;;;;;;;;;;;;;13.72;63.19;99790.44;4469656;32;35094;-80
2023/04/29 01:44:19;;;;;;;;;;;;;;;13.87;63.21;99800.44;4458912;32;33510;-81
2023/04/29 01:46:51;;;;;;;;;;;;;;;13.67;64.70;99799.81;4462287;32;33972;-81
2023/04/29 01:49:28;;;;;;;;;;;;;;;13.47;65.50;99797.44;4458888;32;35039;-81
2023/04/29 01:51:55;;;;;;;;;;;;;;;13.43;65.52;99795.56;4469458;32;34615;-81
2023/04/29 01:54:23;;;;;;;;;;;;;;;13.40;64.70;99792.84;4465919;32;34349;-80
2023/04/29 01:56:51;;;;;;;;;;;;;;;13.51;65.00;99799.31;4468895;32;34029;-81
2023/04/29 01:59:19;;;;;;;;;;;;;;;13.44;64.80;99793.84;4469164;32;34110;-81
2023/04/29 02:01:50;;;;;;;;;;;;;;;13.31;65.42;99800.38;4469457;32;35008;-81
2023/04/29 02:04:18;;;;;;;;;;;;;;;13.81;63.61;99793.34;4468975;32;34463;-81
2023/04/29 02:06:46;;;;;;;;;;;;;;;13.71;64.17;99796.47;4464219;32;34826;-80
2023/04/29 02:09:16;;;;;;;;;;;;;;;13.64;63.95;99803.22;4469680;32;35383;-80
2023/04/29 02:11:47;;;;;;;;;;;;;;;13.67;64.00;99799.81;4469449;32;33788;-81
2023/04/29 02:14:14;;;;;;;;;;;;;;;13.78;63.04;99803.66;4468688;32;33490;-81
2023/04/29 02:16:45;;;;;;;;;;;;;;;13.47;63.63;99796.56;4463008;32;34304;-80
2023/04/29 02:19:12;;;;;;;;;;;;;;;13.59;63.01;99802.16;4467842;32;34727;-80
2023/04/29 02:21:40;;;;;;;;;;;;;;;13.46;63.43;99798.28;4468521;32;34315;-80
2023/04/29 02:24:07;;;;;;;;;;;;;;;13.30;64.07;99790.78;4468681;32;33629;-81
2023/04/29 02:26:36;;;;;;;;;;;;;;;13.37;63.99;99796.25;4468620;32;34961;-80
2023/04/29 02:29:04;;;;;;;;;;;;;;;13.37;63.87;99792.78;4468953;32;35070;-81
2023/04/29 02:31:31;;;;;;;;;;;;;;;13.26;63.97;99787.16;4468866;32;34587;-81
2023/04/29 02:33:59;;;;;;;;;;;;;;;13.26;63.99;99791.50;4468714;32;33756;-80
2023/04/29 02:36:27;;;;;;;;;;;;;;;13.25;64.04;99784.50;4468907;32;34822;-81
2023/04/29 02:38:55;;;;;;;;;;;;;;;13.51;63.42;99775.88;4469051;32;34827;-80
2023/04/29 02:41:24;;;;;;;;;;;;;;;13.34;63.35;99774.44;4468817;32;34497;-80
2023/04/29 02:43:51;;;;;;;;;;;;;;;13.09;64.23;99777.91;4469276;32;33094;-81
2023/04/29 02:46:19;;;;;;;;;;;;;;;12.92;64.49;99780.81;4468610;32;34077;-80
2023/04/29 02:48:46;;;;;;;;;;;;;;;12.86;64.67;99785.78;4445567;32;33894;-80
2023/04/29 02:51:14;;;;;;;;;;;;;;;12.67;65.12;99768.69;4468891;32;34561;-81
2023/04/29 02:54:00;;;;;;;;;;;;;;;12.73;64.26;99768.91;4464145;32;34401;-81
2023/04/29 02:56:28;;;;;;;;;;;;;;;12.96;63.52;99768.78;4468794;32;33739;-81
2023/04/29 02:58:55;;;;;;;;;;;;;;;13.11;62.37;99774.53;4468599;32;34087;-80
2023/04/29 03:01:23;;;;;;;;;;;;;;;12.73;63.40;99773.22;4468606;32;33994;-80
2023/04/29 03:03:51;;;;;;;;;;;;;;;13.21;61.37;99773.13;4463587;32;32786;-81
2023/04/29 03:06:19;;;;;;;;;;;;;;;13.13;61.00;99774.56;4466038;32;34169;-81
2023/04/29 03:08:46;;;;;;;;;;;;;;;13.24;59.33;99774.94;4467274;32;33760;-81
2023/04/29 03:11:13;;;;;;;;;;;;;;;13.10;59.91;99775.38;4468576;32;34224;-81
2023/04/29 03:13:41;;;;;;;;;;;;;;;13.13;59.36;99774.56;4463392;32;33938;-81
2023/04/29 03:16:08;;;;;;;;;;;;;;;12.87;59.88;99778.91;4468003;32;34036;-80
2023/04/29 03:18:36;;;;;;;;;;;;;;;13.41;58.14;99789.44;4467520;32;33659;-81
2023/04/29 03:21:04;;;;;;;;;;;;;;;13.37;57.81;99785.84;4459666;32;34440;-81
2023/04/29 03:23:31;;;;;;;;;;;;;;;13.52;57.56;99790.69;4452592;32;32821;-81
2023/04/29 03:26:00;;;;;;;;;;;;;;;13.49;57.66;99790.56;4455841;32;33865;-80
2023/04/29 03:28:27;;;;;;;;;;;;;;;13.54;57.87;99791.62;4452586;32;33823;-80
2023/04/29 03:30:55;;;;;;;;;;;;;;;13.51;57.78;99786.28;4452987;32;34485;-80
2023/04/29 03:33:23;;;;;;;;;;;;;;;13.66;57.51;99782.44;4454510;32;34332;-81
2023/04/29 03:35:50;;;;;;;;;;;;;;;13.87;56.40;99783.12;4444480;32;33607;-81
2023/04/29 03:38:19;;;;;;;;;;;;;;;13.70;56.94;99789.50;4454609;32;34662;-80
2023/04/29 03:40:47;;;;;;;;;;;;;;;13.66;56.78;99783.31;4444265;32;34228;-80
2023/04/29 03:43:14;;;;;;;;;;;;;;;13.80;56.35;99788.94;4454777;32;34474;-81
2023/04/29 03:45:42;;;;;;;;;;;;;;;13.72;56.64;99799.12;4444213;32;34153;-81
2023/04/29 03:48:11;;;;;;;;;;;;;;;13.90;55.95;99804.00;4453050;32;34038;-80
2023/04/29 03:50:38;;;;;;;;;;;;;;;14.03;55.37;99804.41;4457055;32;35210;-80
2023/04/29 03:53:07;;;;;;;;;;;;;;;13.96;55.66;99804.25;4454280;32;33488;-80
2023/04/29 03:55:34;;;;;;;;;;;;;;;14.12;55.34;99809.91;4456334;32;34754;-81
2023/04/29 03:58:02;;;;;;;;;;;;;;;13.93;55.74;99814.53;4447026;32;34732;-80
2023/04/29 04:00:30;;;;;;;;;;;;;;;13.81;56.07;99813.25;4454655;32;34302;-80
2023/04/29 04:02:57;;;;;;;;;;;;;;;13.53;56.50;99813.25;4443596;32;33636;-80
2023/04/29 04:05:25;;;;;;;;;;;;;;;13.69;55.56;99813.75;4456739;32;33728;-80
2023/04/29 04:07:53;;;;;;;;;;;;;;;13.57;56.15;99812.50;4444443;32;34602;-81
2023/04/29 04:10:23;;;;;;;;;;;;;;;13.51;56.72;99814.91;4454600;32;32307;-81
2023/04/29 04:12:50;;;;;;;;;;;;;;;13.85;55.64;99813.44;4454577;32;33565;-80
2023/04/29 04:15:17;;;;;;;;;;;;;;;13.70;56.78;99820.75;4451124;32;34747;-80
2023/04/29 04:17:45;;;;;;;;;;;;;;;13.79;55.91;99809.72;4461614;32;33803;-81
2023/04/29 04:20:12;;;;;;;;;;;;;;;13.84;55.27;99808.16;4465764;32;34269;-81
2023/04/29 04:22:40;;;;;;;;;;;;;;;13.69;56.12;99816.34;4469961;32;34102;-80
2023/04/29 04:25:09;;;;;;;;;;;;;;;13.68;56.27;99815.47;4469685;32;34361;-81
2023/04/29 04:27:36;;;;;;;;;;;;;;;13.53;56.41;99817.59;4469364;32;33670;-81
2023/04/29 04:30:04;;;;;;;;;;;;;;;13.66;55.86;99821.47;4469771;32;34502;-80
2023/04/29 04:32:32;;;;;;;;;;;;;;;13.57;56.08;99815.12;4469411;32;33613;-81
2023/04/29 04:34:59;;;;;;;;;;;;;;;13.56;56.02;99823.78;4461985;32;33723;-80
2023/04/29 04:37:27;;;;;;;;;;;;;;;13.55;55.83;99819.38;4469856;32;34807;-80
2023/04/29 04:39:55;;;;;;;;;;;;;;;13.65;55.52;99823.19;4469398;32;34476;-81
2023/04/29 04:42:22;;;;;;;;;;;;;;;13.82;55.56;99825.47;4456572;32;33488;-81
2023/04/29 04:44:50;;;;;;;;;;;;;;;13.82;55.83;99815.03;4469668;32;35054;-81
2023/04/29 04:47:18;;;;;;;;;;;;;;;13.75;56.07;99820.06;4469366;32;33782;-81
2023/04/29 04:49:45;;;;;;;;;;;;;;;13.99;55.55;99818.19;4469549;32;34496;-80
2023/04/29 04:52:13;;;;;;;;;;;;;;;13.86;56.33;99816.91;4469622;32;33781;-80
2023/04/29 04:54:43;;;;;;;;;;;;;;;13.86;56.56;99812.56;4469673;32;33727;-80
2023/04/29 04:57:11;;;;;;;;;;;;;;;13.68;56.91;99804.19;4469382;32;33488;-81
2023/04/29 04:59:38;;;;;;;;;;;;;;;13.63;57.61;99806.62;4469580;32;34971;-81
2023/04/29 05:02:07;;;;;;;;;;;;;;;13.54;57.97;99804.63;4469397;32;33270;-80
2023/04/29 05:04:34;;;;;;;;;;;;;;;13.41;58.64;99796.38;4469606;32;34818;-81
2023/04/29 05:07:01;;;;;;;;;;;;;;;13.44;58.36;99801.66;4465275;32;35102;-80
2023/04/29 05:09:30;;;;;;;;;;;;;;;13.29;59.46;99802.91;4469684;32;35081;-81
2023/04/29 05:11:58;;;;;;;;;;;;;;;13.09;59.79;99807.38;4469679;32;33571;-81
2023/04/29 05:14:26;;;;;;;;;;;;;;;13.17;60.21;99808.56;4467116;32;33628;-81
2023/04/29 05:16:57;;;;;;;;;;;;;;;13.44;59.68;99801.66;4469044;32;33668;-81
2023/04/29 05:19:25;;;;;;;;;;;;;;;13.40;59.38;99800.66;4462079;32;33980;-81
2023/04/29 05:21:53;;;;;;;;;;;;;;;13.66;58.64;99808.47;4469626;32;34028;-80
2023/04/29 05:24:20;;;;;;;;;;;;;;;13.47;59.07;99810.44;4468789;32;34622;-81
2023/04/29 05:26:50;;;;;;;;;;;;;;;13.52;58.72;99816.69;4469374;32;34102;-80
2023/04/29 05:29:18;;;;;;;;;;;;;;;13.70;58.26;99810.34;4461663;32;33701;-80
2023/04/29 05:31:46;;;;;;;;;;;;;;;13.64;58.61;99816.22;4469866;32;34407;-80
2023/04/29 05:34:14;;;;;;;;;;;;;;;14.00;57.52;99814.72;4467124;32;34004;-80
2023/04/29 05:36:41;;;;;;;;;;;;;;;13.87;57.70;99818.66;4469489;32;33525;-81
2023/04/29 05:39:08;;;;;;;;;;;;;;;14.03;57.44;99820.91;4469307;32;34051;-80
2023/04/29 05:41:36;;;;;;;;;;;;;;;13.96;57.72;99822.47;4469729;32;33180;-80
2023/04/29 05:44:05;;;;;;;;;;;;;;;14.29;56.64;99823.44;4468401;32;33851;-81
2023/04/29 05:46:32;;;;;;;;;;;;;;;13.99;57.13;99824.28;4468902;32;34194;-81
2023/04/29 05:48:59;;;;;;;;;;;;;;;14.04;56.06;99822.72;4462200;32;34246;-80
2023/04/29 05:51:27;;;;;;;;;;;;;;;14.17;55.69;99818.75;4452002;32;33510;-80
2023/04/29 05:53:54;;;;;;;;;;;;;;;14.16;55.70;99822.19;4468017;32;34356;-81
2023/04/29 05:56:22;;;;;;;;;;;;;;;13.91;57.16;99821.44;4468958;32;32783;-81
2023/04/29 05:58:49;;;;;;;;;;;;;;;14.29;56.72;99829.56;4468407;32;34983;-80
2023/04/29 06:01:17;;;;;;;;;;;;;;;14.45;56.43;99830.00;4460392;32;33674;-80
2023/04/29 06:03:44;;;;;;;;;;;;;;;14.35;55.31;99834.94;4464861;32;33867;-81
2023/04/29 06:06:13;;;;;;;;;;;;;;;14.71;54.64;99839.47;4467720;32;33940;-80
2023/04/29 06:08:40;;;;;;;;;;;;;;;14.84;54.01;99830.28;4468695;32;35027;-80
2023/04/29 06:11:09;;;;;;;;;;;;;;;14.79;53.94;99831.00;4468996;32;33769;-81
2023/04/29 06:13:37;;;;;;;;;;;;;;;14.84;54.18;99826.81;4468877;32;33769;-80
2023/04/29 06:16:04;;;;;;;;;;;;;;;14.71;54.96;99823.84;4468783;32;34884;-80
2023/04/29 06:18:32;;;;;;;;;;;;;;;14.72;53.60;99825.63;4468588;32;34352;-80
2023/04/29 06:20:59;;;;;;;;;;;;;;;14.61;52.73;99827.03;4453208;32;33656;-81
2023/04/29 06:23:26;;;;;;;;;;;;;;;14.65;53.02;99828.88;4453117;32;34352;-81
2023/04/29 06:25:54;;;;;;;;;;;;;;;14.69;52.85;99812.47;4453288;32;33673;-81
2023/04/29 06:28:23;;;;;;;;;;;;;;;14.69;51.85;99822.91;4452866;32;34290;-81
2023/04/29 06:30:50;;;;;;;;;;;;;;;14.36;52.87;99821.06;4452940;32;33359;-80
2023/04/29 06:33:18;;;;;;;;;;;;;;;14.88;51.51;99831.25;4453305;32;34704;-80
2023/04/29 06:35:45;;;;;;;;;;;;;;;14.68;52.40;99833.28;4453016;32;34846;-80
2023/04/29 06:38:12;;;;;;;;;;;;;;;14.93;51.86;99830.56;4441527;32;34447;-81
2023/04/29 06:40:40;;;;;;;;;;;;;;;14.63;53.10;99825.34;4452946;32;34348;-81
2023/04/29 06:43:07;;;;;;;;;;;;;;;14.66;52.36;99820.25;4452853;32;33738;-81
2023/04/29 06:45:35;;;;;;;;;;;;;;;14.84;52.64;99826.81;4453096;32;34794;-80
2023/04/29 06:48:03;;;;;;;;;;;;;;;14.94;52.61;99826.22;4452952;32;34207;-81
2023/04/29 06:50:31;;;;;;;;;;;;;;;14.69;53.16;99830.72;4453056;32;33730;-81
2023/04/29 06:52:58;;;;;;;;;;;;;;;14.90;52.92;99829.59;4453064;32;33641;-81
2023/04/29 06:55:25;;;;;;;;;;;;;;;15.09;52.80;99830.97;4440660;32;34264;-81
2023/04/29 06:57:53;;;;;;;;;;;;;;;14.85;53.66;99831.16;4452706;32;34318;-81
2023/04/29 07:00:21;;;;;;;;;;;;;;;14.92;52.77;99833.13;4438989;32;33572;-81
2023/04/29 07:02:49;;;;;;;;;;;;;;;15.08;52.40;99830.06;4439465;32;33143;-81
2023/04/29 07:05:16;;;;;;;;;;;;;;;15.25;51.91;99829.66;4452201;32;34659;-81
2023/04/29 07:07:43;;;;;;;;;;;;;;;15.37;51.80;99829.97;4452572;32;34357;-81
2023/04/29 07:10:11;;;;;;;;;;;;;;;15.13;52.29;99823.25;4452575;32;33308;-81
2023/04/29 07:12:38;;;;;;;;;;;;;;;15.25;52.21;99840.09;4452390;32;34334;-80
2023/04/29 07:15:06;;;;;;;;;;;;;;;15.57;51.62;99840.03;4452137;32;34253;-80
2023/04/29 07:17:33;;;;;;;;;;;;;;;15.18;53.36;99832.94;4452563;32;34550;-80
2023/04/29 07:20:01;;;;;;;;;;;;;;;15.38;52.11;99839.56;4454588;32;33397;-80
2023/04/29 07:22:28;;;;;;;;;;;;;;;15.20;52.67;99839.06;4452726;32;34758;-81
2023/04/29 07:24:56;;;;;;;;;;;;;;;15.61;52.02;99836.66;4447485;32;33529;-80
2023/04/29 07:27:23;;;;;;;;;;;;;;;15.59;52.12;99833.09;4451536;32;34687;-80
2023/04/29 07:29:51;;;;;;;;;;;;;;;15.62;52.29;99830.59;4451504;32;33101;-80
2023/04/29 07:32:19;;;;;;;;;;;;;;;16.04;50.19;99824.66;4449227;32;33639;-80
2023/04/29 07:34:46;;;;;;;;;;;;;;;16.07;50.15;99822.09;4436039;32;34585;-80
2023/04/29 07:37:14;;;;;;;;;;;;;;;16.06;50.96;99820.34;4449839;32;34352;-80
2023/04/29 07:39:42;;;;;;;;;;;;;;;16.28;49.85;99826.94;4436143;32;34460;-80
2023/04/29 07:42:09;;;;;;;;;;;;;;;16.38;50.74;99823.69;4451827;32;32479;-80
2023/04/29 07:44:37;;;;;;;;;;;;;;;16.70;50.08;99816.50;4451712;32;34214;-80
2023/04/29 07:47:05;;;;;;;;;;;;;;;17.37;46.96;99817.78;4451093;32;34510;-80
2023/04/29 07:49:32;;;;;;;;;;;;;;;17.10;47.18;99821.66;4453973;32;33527;-79
2023/04/29 07:51:59;;;;;;;;;;;;;;;18.08;45.33;99819.84;4449363;32;33827;-80
2023/04/29 07:54:26;;;;;;;;;;;;;;;19.31;43.54;99823.97;4445872;32;34982;-80
2023/04/29 07:56:56;;;;;;;;;;;;;;;20.32;41.22;99815.12;4442350;32;34442;-81
2023/04/29 07:59:23;;;;;;;;;;;;;;;20.84;39.47;99828.53;4452452;32;33655;-80
2023/04/29 08:01:51;;;;;;;;;;;;;;;21.15;38.79;99832.16;4435219;32;33987;-80
2023/04/29 08:04:19;;;;;;;;;;;;;;;20.17;40.61;99835.22;4452387;32;34984;-80
2023/04/29 08:06:47;;;;;;;;;;;;;;;20.70;38.50;99835.50;4452180;32;35104;-80
2023/04/29 08:09:15;;;;;;;;;;;;;;;20.41;39.03;99833.59;4452412;32;34016;-80
2023/04/29 08:11:43;;;;;;;;;;;;;;;20.27;38.07;99830.88;4450162;32;34011;-80
2023/04/29 08:14:12;;;;;;;;;;;;;;;20.16;39.04;99835.19;4451604;32;34941;-80
2023/04/29 08:16:40;;;;;;;;;;;;;;;19.62;40.71;99840.00;4451780;32;34531;-80
2023/04/29 08:19:07;;;;;;;;;;;;;;;19.78;40.03;99839.31;4456194;32;33504;-80
2023/04/29 08:21:34;;;;;;;;;;;;;;;19.33;40.90;99838.00;4469663;32;33499;-80
2023/04/29 08:24:02;;;;;;;;;;;;;;;19.62;40.19;99834.75;4469024;32;34596;-80
2023/04/29 08:26:29;;;;;;;;;;;;;;;19.59;40.90;99840.00;4468283;32;34288;-80
2023/04/29 08:28:57;;;;;;;;;;;;;;;18.93;42.80;99832.34;4469265;32;33353;-80
2023/04/29 08:31:24;;;;;;;;;;;;;;;19.51;39.90;99825.91;4469231;32;35085;-80
2023/04/29 08:33:52;;;;;;;;;;;;;;;18.89;41.13;99822.69;4457174;32;33165;-80
2023/04/29 08:36:20;;;;;;;;;;;;;;;19.60;40.39;99836.50;4469450;32;32835;-80
2023/04/29 08:38:47;;;;;;;;;;;;;;;18.91;41.12;99827.91;4469490;32;32440;-80
2023/04/29 08:41:15;;;;;;;;;;;;;;;18.28;41.61;99826.22;4469092;32;33943;-79
2023/04/29 08:43:43;;;;;;;;;;;;;;;18.82;41.05;99831.34;4469677;32;34116;-80
2023/04/29 08:46:10;;;;;;;;;;;;;;;17.96;44.21;99827.50;4455925;32;34405;-81
2023/04/29 08:48:40;;;;;;;;;;;;;;;19.16;41.12;99823.81;4460430;32;33711;-80
2023/04/29 08:51:12;;;;;;;;;;;;;;;19.49;39.33;99833.78;4461588;32;35406;-80
2023/04/29 08:53:39;;;;;;;;;;;;;;;19.65;39.50;99829.53;4465754;32;34068;-80
2023/04/29 08:56:19;;;;;;;;;;;;;;;20.06;38.17;99831.63;4458232;32;35213;-80
2023/04/29 08:58:53;;;;;;;;;;;;;;;19.65;40.59;99846.19;4469643;32;33334;-79
2023/04/29 09:01:22;;;;;;;;;;;;;;;18.78;42.54;99840.87;4467617;32;34935;-80
2023/04/29 09:03:51;;;;;;;;;;;;;;;19.48;39.80;99846.91;4461784;32;35028;-80
2023/04/29 09:06:20;;;;;;;;;;;;;;;19.58;40.06;99844.34;4469738;32;34282;-81
2023/04/29 09:08:47;;;;;;;;;;;;;;;18.22;42.95;99841.87;4466777;32;33315;-80
2023/04/29 09:11:15;;;;;;;;;;;;;;;17.31;43.11;99849.97;4462549;32;34427;-79
2023/04/29 09:13:42;;;;;;;;;;;;;;;16.97;43.54;99840.59;4461372;32;33961;-80
2023/04/29 09:16:10;;;;;;;;;;;;;;;16.27;45.84;99849.59;4469651;32;34379;-80
2023/04/29 09:18:42;;;;;;;;;;;;;;;17.58;43.12;99848.72;4469393;32;34060;-80
2023/04/29 09:21:15;;;;;;;;;;;;;;;18.31;41.60;99842.88;4475982;32;34031;-80
2023/04/29 09:23:45;;;;;;;;;;;;;;;18.59;43.28;99841.50;4475865;32;33919;-80
2023/04/29 09:26:13;;;;;;;;;;;;;;;18.93;41.33;99842.84;4480468;32;34567;-80
2023/04/29 09:28:42;;;;;;;;;;;;;;;19.11;40.14;99842.16;4448073;32;33534;-80
2023/04/29 09:31:10;;;;;;;;;;;;;;;19.19;40.85;99839.63;4475496;32;35046;-80
2023/04/29 09:33:53;;;;;;;;;;;;;;;19.32;38.63;99845.88;4475504;32;33999;-80
2023/04/29 09:36:41;;;;;;;;;;;;;;;19.67;37.42;99837.44;4467085;32;33778;-80
2023/04/29 09:39:11;;;;;;;;;;;;;;;19.33;39.13;99843.25;4477583;32;34056;-80
2023/04/29 09:41:39;;;;;;;;;;;;;;;18.85;38.63;99847.09;4479143;32;34340;-80
2023/04/29 09:44:06;;;;;;;;;;;;;;;19.18;39.42;99837.84;4475989;32;33683;-80
2023/04/29 09:46:35;;;;;;;;;;;;;;;19.68;38.36;99839.19;4475907;32;34538;-80
2023/04/29 09:49:06;;;;;;;;;;;;;;;20.04;37.70;99834.25;4462858;32;33469;-80
2023/04/29 09:51:33;;;;;;;;;;;;;;;20.06;37.44;99836.03;4455332;32;33268;-80
2023/04/29 09:54:01;;;;;;;;;;;;;;;20.46;36.25;99831.88;4454650;32;34462;-80
2023/04/29 09:56:33;;;;;;;;;;;;;;;20.62;36.40;99828.47;4456737;32;34276;-80
2023/04/29 09:59:09;;;;;;;;;;;;;;;19.79;35.66;99827.94;4462652;32;32180;-80
2023/04/29 10:01:38;;;;;;;;;;;;;;;20.21;36.53;99826.47;4459247;32;34259;-81
2023/04/29 10:04:07;;;;;;;;;;;;;;;20.77;35.34;99826.78;4477664;32;34302;-80
2023/04/29 10:06:34;;;;;;;;;;;;;;;21.04;35.28;99831.25;4475719;32;35111;-80
2023/04/29 10:09:01;;;;;;;;;;;;;;;20.54;35.18;99830.16;4460955;32;32042;-80
2023/04/29 10:11:30;;;;;;;;;;;;;;;19.91;34.75;99831.53;4472816;32;34159;-80
2023/04/29 10:13:57;;;;;;;;;;;;;;;20.65;34.27;99831.97;4478499;32;33916;-80
2023/04/29 10:16:31;;;;;;;;;;;;;;;20.95;33.61;99826.81;4458576;32;34741;-80
2023/04/29 10:19:00;;;;;;;;;;;;;;;21.11;34.66;99821.59;4464921;32;33515;-80
2023/04/29 10:21:30;;;;;;;;;;;;;;;20.09;36.00;99825.50;4461077;32;34720;-80
2023/04/29 10:23:58;;;;;;;;;;;;;;;20.08;34.71;99818.50;4482114;32;33830;-80
2023/04/29 10:26:27;;;;;;;;;;;;;;;19.22;35.61;99826.53;4457047;32;34596;-80
2023/04/29 10:28:55;;;;;;;;;;;;;;;20.39;35.13;99822.19;4468413;32;33314;-80
2023/04/29 10:31:24;;;;;;;;;;;;;;;20.18;34.60;99810.66;4478525;32;33705;-80
2023/04/29 10:33:55;;;;;;;;;;;;;;;20.12;35.90;99820.28;4472637;32;34643;-80
2023/04/29 10:36:23;;;;;;;;;;;;;;;20.03;37.35;99810.59;4471571;32;33268;-80
2023/04/29 10:38:52;;;;;;;;;;;;;;;20.75;36.56;99799.56;4478917;32;33927;-80
2023/04/29 10:41:20;;;;;;;;;;;;;;;20.71;36.90;99792.53;4477333;32;33918;-80
2023/04/29 10:43:47;;;;;;;;;;;;;;;21.08;35.59;99790.88;4458770;32;33678;-81
2023/04/29 10:46:27;;;;;;;;;;;;;;;21.85;35.51;99777.75;4470849;32;35320;-81
2023/04/29 10:48:56;;;;;;;;;;;;;;;21.55;35.05;99773.37;4473889;32;33597;-81
2023/04/29 10:51:27;;;;;;;;;;;;;;;21.48;33.08;99774.25;4477074;32;34642;-81
2023/04/29 10:54:02;;;;;;;;;;;;;;;21.70;34.82;99768.09;4466058;32;35051;-81
2023/04/29 10:56:36;;;;;;;;;;;;;;;21.45;32.86;99763.72;4461226;32;34629;-80
2023/04/29 10:59:04;;;;;;;;;;;;;;;21.70;32.87;99762.81;4461883;32;33381;-81
2023/04/29 11:01:50;;;;;;;;;;;;;;;21.76;34.04;99759.31;4461365;32;34305;-80
2023/04/29 11:04:19;;;;;;;;;;;;;;;22.00;34.97;99758.38;4468145;32;34143;-79
2023/04/29 11:06:47;;;;;;;;;;;;;;;23.05;32.48;99758.84;4458152;32;34085;-79
2023/04/29 11:09:17;;;;;;;;;;;;;;;22.79;32.94;99753.66;4459592;32;33627;-79
2023/04/29 11:11:52;;;;;;;;;;;;;;;22.87;33.66;99751.88;4460918;32;34300;-79
2023/04/29 11:14:21;;;;;;;;;;;;;;;22.32;32.03;99749.50;4460327;32;34864;-79
2023/04/29 11:17:11;;;;;;;;;;;;;;;22.56;32.33;99749.41;4457630;32;34026;-80
2023/04/29 11:19:45;;;;;;;;;;;;;;;22.83;34.07;99744.88;4458199;32;32222;-80
2023/04/29 11:22:22;;;;;;;;;;;;;;;23.40;33.10;99738.31;4466000;32;34073;-80
2023/04/29 11:24:54;;;;;;;;;;;;;;;22.86;31.73;99741.31;4466676;32;34693;-80
2023/04/29 11:27:26;;;;;;;;;;;;;;;23.12;31.76;99743.81;4467811;32;34153;-80
2023/04/29 11:29:57;;;;;;;;;;;;;;;23.23;31.25;99731.41;4467889;32;33735;-80
2023/04/29 11:32:51;;;;;;;;;;;;;;;22.70;33.06;99740.53;4466102;32;34929;-80
2023/04/29 11:35:19;;;;;;;;;;;;;;;22.68;34.86;99737.03;4464894;32;34008;-81
2023/04/29 11:37:46;;;;;;;;;;;;;;;22.72;33.89;99734.37;4468032;32;33956;-82
2023/04/29 11:40:14;;;;;;;;;;;;;;;23.35;32.31;99735.69;4468114;32;33399;-82
2023/04/29 11:42:42;;;;;;;;;;;;;;;22.97;33.91;99739.50;4468311;32;35435;-81
2023/04/29 11:45:11;;;;;;;;;;;;;;;22.95;31.69;99741.28;4468208;32;34349;-81
2023/04/29 11:47:41;;;;;;;;;;;;;;;22.35;32.07;99744.25;4468079;32;34241;-81
2023/04/29 11:50:09;;;;;;;;;;;;;;;22.30;33.66;99738.97;4465489;32;33509;-81
2023/04/29 11:52:37;;;;;;;;;;;;;;;21.35;36.09;99739.09;4469221;32;33974;-81
2023/04/29 11:55:05;;;;;;;;;;;;;;;21.80;34.11;99740.81;4470194;32;34016;-81
2023/04/29 11:57:32;;;;;;;;;;;;;;;21.22;35.66;99740.84;4463412;32;34388;-81
2023/04/29 12:00:00;;;;;;;;;;;;;;;21.46;34.84;99744.38;4470378;32;34411;-82
2023/04/29 12:02:30;;;;;;;;;;;;;;;21.94;34.92;99732.91;4470330;32;33650;-82
2023/04/29 12:05:02;;;;;;;;;;;;;;;21.90;34.45;99736.41;4470083;32;34183;-81
2023/04/29 12:07:29;;;;;;;;;;;;;;;21.91;34.86;99732.03;4470400;32;35249;-81
2023/04/29 12:09:57;;;;;;;;;;;;;;;21.43;33.86;99737.34;4470367;32;33291;-82
2023/04/29 12:12:26;;;;;;;;;;;;;;;21.94;33.83;99726.72;4443602;32;34884;-81
2023/04/29 12:14:53;;;;;;;;;;;;;;;21.86;33.99;99728.53;4466123;32;33933;-82
2023/04/29 12:17:21;;;;;;;;;;;;;;;22.16;33.93;99733.72;4462519;32;34505;-82
2023/04/29 12:19:48;;;;;;;;;;;;;;;22.25;34.73;99729.31;4469891;32;33452;-82
2023/04/29 12:22:16;;;;;;;;;;;;;;;23.17;32.97;99718.25;4468132;32;34257;-81
2023/04/29 12:24:43;;;;;;;;;;;;;;;23.28;31.69;99719.03;4470225;32;34156;-81
2023/04/29 12:27:10;;;;;;;;;;;;;;;22.92;32.46;99723.66;4469976;32;34107;-81
2023/04/29 12:29:39;;;;;;;;;;;;;;;22.97;31.66;99724.53;4464034;32;32760;-82
2023/04/29 12:32:07;;;;;;;;;;;;;;;22.90;32.06;99714.88;4457804;32;33504;-82
2023/04/29 12:34:34;;;;;;;;;;;;;;;23.34;31.64;99718.09;4469814;32;33688;-81
2023/04/29 12:37:02;;;;;;;;;;;;;;;22.84;33.37;99717.56;4469770;32;35151;-82
2023/04/29 12:39:29;;;;;;;;;;;;;;;22.74;32.31;99707.94;4469890;32;34181;-82
2023/04/29 12:41:57;;;;;;;;;;;;;;;22.89;32.17;99715.78;4466063;32;34803;-81
2023/04/29 12:44:24;;;;;;;;;;;;;;;23.19;32.39;99707.66;4454509;32;34948;-82
2023/04/29 12:46:54;;;;;;;;;;;;;;;23.20;32.56;99697.09;4460101;32;34819;-81
2023/04/29 12:49:24;;;;;;;;;;;;;;;23.40;32.18;99696.03;4470124;32;34411;-82
2023/04/29 12:51:52;;;;;;;;;;;;;;;23.72;32.18;99696.59;4469737;32;34310;-81
2023/04/29 12:54:19;;;;;;;;;;;;;;;23.80;32.30;99700.94;4469476;32;35270;-82
2023/04/29 12:56:48;;;;;;;;;;;;;;;23.35;31.95;99694.31;4458482;32;33915;-82